Time;durP1;ratioP1;P1;durP2;ratioP2;P2;SDS_P1;SDS_P2;PMS_P1;PMS_P2;Temp;Humidity;BMP_temperature;BMP_pressure;BME280_temperature;BME280_humidity;BME280_pressure;Samples;Min_cycle;Max_cycle;Signal;HPM_P1;HPM_P2
2023/04/24 00:01:12;;;;;;;26.42;7.57;;;;;;;11.05;68.58;100711.97;5010183;28;20030;-82
2023/04/24 00:03:38;;;;;;;26.38;8.70;;;;;;;11.06;67.91;100708.28;5010060;28;20033;-83
2023/04/24 00:06:06;;;;;;;28.55;8.32;;;;;;;11.04;67.95;100704.03;5009858;28;20026;-83
2023/04/24 00:08:32;;;;;;;32.30;8.25;;;;;;;11.05;67.65;100700.34;4974030;28;20122;-83
2023/04/24 00:10:57;;;;;;;34.28;7.95;;;;;;;10.98;67.81;100699.16;5009184;28;20492;-82
2023/04/24 00:13:23;;;;;;;17.10;7.45;;;;;;;11.00;67.95;100697.19;5009663;28;20413;-83
2023/04/24 00:15:49;;;;;;;18.27;7.25;;;;;;;11.02;68.39;100701.44;5008657;28;20099;-82
2023/04/24 00:18:14;;;;;;;24.15;6.82;;;;;;;10.89;67.68;100696.22;5008801;28;20556;-85
2023/04/24 00:20:40;;;;;;;18.50;7.65;;;;;;;10.87;68.30;100691.94;5009031;28;20078;-81
2023/04/24 00:23:06;;;;;;;27.73;7.80;;;;;;;10.84;68.27;100684.97;5008864;28;20014;-83
2023/04/24 00:25:31;;;;;;;22.05;7.10;;;;;;;10.84;68.49;100682.28;5009133;28;20026;-82
2023/04/24 00:27:57;;;;;;;21.60;7.65;;;;;;;10.74;69.01;100670.56;5009088;28;20109;-84
2023/04/24 00:30:22;;;;;;;32.28;6.78;;;;;;;10.82;68.69;100691.47;5008572;28;20509;-82
2023/04/24 00:32:47;;;;;;;12.40;6.50;;;;;;;10.82;68.87;100681.53;5009029;28;20501;-83
2023/04/24 00:35:14;;;;;;;27.73;7.03;;;;;;;10.85;68.88;100688.53;5008544;28;20077;-83
2023/04/24 00:37:40;;;;;;;16.27;6.68;;;;;;;10.77;68.05;100674.81;5008605;28;20086;-82
2023/04/24 00:40:06;;;;;;;18.35;7.07;;;;;;;10.80;68.70;100682.66;5008784;28;20116;-83
2023/04/24 00:42:32;;;;;;;19.55;7.68;;;;;;;10.79;68.57;100684.47;5009191;28;20104;-84
2023/04/24 00:44:59;;;;;;;30.80;7.63;;;;;;;10.82;68.86;100684.22;5007987;28;20030;-84
2023/04/24 00:47:25;;;;;;;26.35;8.18;;;;;;;10.89;68.26;100688.13;5024692;28;20106;-83
2023/04/24 00:49:50;;;;;;;28.45;8.25;;;;;;;10.89;68.39;100684.59;5025849;28;20064;-81
2023/04/24 00:52:17;;;;;;;29.75;7.45;;;;;;;10.89;68.23;100685.44;5012745;28;20041;-82
2023/04/24 00:54:45;;;;;;;31.65;7.20;;;;;;;10.95;68.01;100694.03;5008650;28;20038;-81
2023/04/24 00:57:10;;;;;;;21.92;7.40;;;;;;;10.98;68.04;100685.69;5009072;28;20026;-83
2023/04/24 00:59:36;;;;;;;26.52;8.20;;;;;;;11.03;68.07;100697.78;5008915;28;20182;-82
2023/04/24 01:02:02;;;;;;;39.25;8.70;;;;;;;10.91;68.23;100678.13;5007855;28;20026;-85
2023/04/24 01:04:28;;;;;;;19.55;8.75;;;;;;;10.92;68.21;100677.13;5008331;28;20033;-83
2023/04/24 01:06:55;;;;;;;22.75;7.90;;;;;;;10.97;68.23;100686.66;5008597;28;20144;-84
2023/04/24 01:09:23;;;;;;;25.33;8.15;;;;;;;10.99;67.93;100698.13;5009103;28;20025;-84
2023/04/24 01:11:49;;;;;;;26.00;8.38;;;;;;;10.97;67.84;100692.91;5009438;28;20061;-81
2023/04/24 01:14:15;;;;;;;29.65;8.45;;;;;;;10.98;68.27;100699.16;5007772;28;20322;-83
2023/04/24 01:16:41;;;;;;;18.63;7.70;;;;;;;10.93;67.71;100694.97;5009733;28;20037;-82
2023/04/24 01:19:07;;;;;;;18.13;8.57;;;;;;;10.91;68.10;100688.88;5010639;28;20034;-81
2023/04/24 01:21:36;;;;;;;26.33;8.77;;;;;;;10.89;68.44;100690.81;5009377;28;20049;-84
2023/04/24 01:24:02;;;;;;;25.20;8.35;;;;;;;10.82;68.08;100694.16;5020471;28;20041;-83
2023/04/24 01:26:27;;;;;;;20.42;7.45;;;;;;;10.75;68.39;100693.78;5009947;28;20109;-84
2023/04/24 01:28:53;;;;;;;25.80;7.50;;;;;;;10.70;68.89;100690.59;5008777;28;20049;-82
2023/04/24 01:31:19;;;;;;;21.75;7.53;;;;;;;10.62;69.11;100685.00;5008912;28;20104;-83
2023/04/24 01:33:45;;;;;;;30.98;7.72;;;;;;;10.60;69.00;100673.53;5008635;28;20116;-82
2023/04/24 01:36:11;;;;;;;22.58;7.93;;;;;;;10.67;69.36;100680.09;5006916;28;20129;-83
2023/04/24 01:38:37;;;;;;;29.33;8.52;;;;;;;10.68;69.65;100680.94;5009035;28;20521;-85
2023/04/24 01:41:03;;;;;;;15.70;6.70;;;;;;;10.62;69.24;100668.84;5009584;28;20030;-82
2023/04/24 01:43:29;;;;;;;17.52;7.32;;;;;;;10.67;69.47;100684.63;5018653;28;20040;-81
2023/04/24 01:45:54;;;;;;;30.80;7.63;;;;;;;10.64;69.89;100680.34;5022518;28;20030;-80
2023/04/24 01:48:20;;;;;;;30.77;7.38;;;;;;;10.66;69.68;100682.91;5019276;28;20030;-80
2023/04/24 01:50:45;;;;;;;23.38;7.50;;;;;;;10.59;69.60;100687.06;5021669;28;20055;-78
2023/04/24 01:53:11;;;;;;;22.08;5.93;;;;;;;10.45;69.51;100668.50;5023283;28;20126;-82
2023/04/24 01:55:36;;;;;;;19.40;7.88;;;;;;;10.51;69.77;100678.78;5008257;28;20038;-82
2023/04/24 01:58:02;;;;;;;33.20;8.60;;;;;;;10.41;69.91;100677.78;5009062;28;20036;-85
2023/04/24 02:00:28;;;;;;;24.95;6.70;;;;;;;10.45;70.19;100680.13;5008784;28;20030;-84
2023/04/24 02:02:53;;;;;;;29.10;7.35;;;;;;;10.37;70.52;100675.34;5007944;28;20520;-83
2023/04/24 02:05:19;;;;;;;13.10;6.97;;;;;;;10.34;70.50;100682.78;5007438;28;20034;-82
2023/04/24 02:07:44;;;;;;;20.80;7.10;;;;;;;10.30;70.58;100671.44;5007649;28;20022;-84
2023/04/24 02:10:10;;;;;;;14.50;6.22;;;;;;;10.32;70.60;100671.31;5007720;28;20120;-82
2023/04/24 02:12:36;;;;;;;25.48;5.95;;;;;;;10.31;70.74;100659.72;5008044;28;20042;-83
2023/04/24 02:15:01;;;;;;;17.05;7.20;;;;;;;10.42;70.17;100674.13;5008282;28;20397;-82
2023/04/24 02:17:27;;;;;;;24.05;7.32;;;;;;;10.33;70.43;100649.72;5007267;28;20445;-83
2023/04/24 02:19:52;;;;;;;21.80;7.75;;;;;;;10.46;70.55;100671.06;5007507;28;20033;-82
2023/04/24 02:22:18;;;;;;;25.02;8.18;;;;;;;10.47;70.04;100672.78;5007908;28;20022;-84
2023/04/24 02:24:44;;;;;;;23.42;7.22;;;;;;;10.47;70.11;100667.41;5008238;28;20030;-84
2023/04/24 02:27:11;;;;;;;35.13;8.10;;;;;;;10.51;70.00;100674.25;5008910;28;20022;-83
2023/04/24 02:29:36;;;;;;;24.00;7.80;;;;;;;10.57;69.62;100664.84;5010359;28;20508;-81
2023/04/24 02:32:02;;;;;;;25.88;6.55;;;;;;;10.60;69.61;100661.91;5010809;28;20069;-82
2023/04/24 02:34:27;;;;;;;32.47;7.50;;;;;;;10.64;68.92;100671.44;5011726;28;20042;-80
2023/04/24 02:36:53;;;;;;;26.75;7.47;;;;;;;10.62;69.23;100666.16;5010909;28;20587;-85
2023/04/24 02:39:19;;;;;;;21.23;6.60;;;;;;;10.60;69.22;100661.91;5011362;28;20033;-83
2023/04/24 02:41:45;;;;;;;31.00;7.72;;;;;;;10.58;69.42;100653.94;5027289;28;20030;-84
2023/04/24 02:44:10;;;;;;;52.00;9.15;;;;;;;10.68;69.42;100659.44;5023165;28;20033;-83
2023/04/24 02:46:36;;;;;;;45.53;7.72;;;;;;;10.69;69.06;100671.91;5011094;28;20053;-85
2023/04/24 02:49:02;;;;;;;30.02;7.60;;;;;;;10.64;69.17;100664.19;5014164;28;20034;-83
2023/04/24 02:51:27;;;;;;;28.95;7.05;;;;;;;10.62;69.22;100652.72;5010854;28;20057;-82
2023/04/24 02:53:53;;;;;;;18.80;6.70;;;;;;;10.69;69.22;100666.53;5010936;28;20034;-84
2023/04/24 02:56:18;;;;;;;25.58;7.63;;;;;;;10.67;68.83;100672.03;5010848;28;20118;-83
2023/04/24 02:58:44;;;;;;;19.77;7.20;;;;;;;10.70;68.77;100663.69;5011047;28;20412;-83
2023/04/24 03:01:10;;;;;;;41.92;9.38;;;;;;;10.60;68.99;100668.13;5011254;28;20030;-79
2023/04/24 03:03:36;;;;;;;23.20;7.90;;;;;;;10.57;69.38;100657.63;5011475;28;20377;-83
2023/04/24 03:06:01;;;;;;;43.08;7.97;;;;;;;10.62;68.97;100665.31;5011178;28;20041;-84
2023/04/24 03:08:27;;;;;;;43.95;9.43;;;;;;;10.69;68.86;100672.78;5010602;28;20404;-82
2023/04/24 03:10:53;;;;;;;36.13;7.00;;;;;;;10.68;69.10;100670.19;5010488;28;20026;-82
2023/04/24 03:13:18;;;;;;;32.10;8.63;;;;;;;10.60;68.90;100656.53;5011829;28;20390;-83
2023/04/24 03:15:44;;;;;;;43.45;7.63;;;;;;;10.62;69.28;100655.41;5009687;28;20038;-84
2023/04/24 03:18:10;;;;;;;46.28;8.43;;;;;;;10.53;69.20;100663.38;5010774;28;20034;-82
2023/04/24 03:20:37;;;;;;;37.17;7.30;;;;;;;10.45;69.69;100650.56;5020284;28;20041;-84
2023/04/24 03:23:02;;;;;;;29.80;8.60;;;;;;;10.58;69.67;100670.06;5015756;28;20424;-81
2023/04/24 03:25:28;;;;;;;33.40;9.18;;;;;;;10.56;69.77;100661.28;5010356;28;20034;-84
2023/04/24 03:27:54;;;;;;;40.22;9.68;;;;;;;10.61;69.64;100663.63;5010448;28;20026;-81
2023/04/24 03:30:20;;;;;;;42.85;9.82;;;;;;;10.64;70.03;100669.56;5010014;28;20088;-83
2023/04/24 03:32:45;;;;;;;42.17;11.43;;;;;;;10.65;70.00;100660.53;5009851;28;20436;-82
2023/04/24 03:35:11;;;;;;;36.53;8.75;;;;;;;10.67;69.94;100658.56;5008388;28;20113;-81
2023/04/24 03:37:36;;;;;;;38.03;9.43;;;;;;;10.70;70.53;100661.00;5016778;28;20033;-80
2023/04/24 03:40:02;;;;;;;56.17;9.80;;;;;;;10.81;70.42;100677.16;5024542;28;20101;-78
2023/04/24 03:42:27;;;;;;;38.80;9.13;;;;;;;10.87;71.24;100670.41;5016742;28;20116;-81
2023/04/24 03:44:53;;;;;;;40.55;9.73;;;;;;;10.97;71.10;100675.91;5009400;28;20527;-82
2023/04/24 03:47:18;;;;;;;53.72;11.38;;;;;;;10.97;70.91;100670.50;5010459;28;20026;-82
2023/04/24 03:49:44;;;;;;;49.63;9.73;;;;;;;10.94;71.42;100660.88;5010103;28;20030;-81
2023/04/24 03:52:09;;;;;;;58.88;10.32;;;;;;;11.03;71.52;100675.41;5009937;28;20567;-81
2023/04/24 03:54:35;;;;;;;71.00;12.93;;;;;;;11.10;71.64;100682.00;5010429;28;20397;-85
2023/04/24 03:57:03;;;;;;;58.80;11.90;;;;;;;11.12;71.84;100669.25;5009861;28;20045;-85
2023/04/24 03:59:28;;;;;;;48.42;11.40;;;;;;;11.19;71.99;100675.84;5011067;28;20053;-82
2023/04/24 04:01:53;;;;;;;55.88;11.90;;;;;;;11.18;72.62;100679.50;5012802;28;20136;-84
2023/04/24 04:04:19;;;;;;;80.07;12.98;;;;;;;11.26;72.52;100687.78;5018639;28;20116;-84
2023/04/24 04:06:46;;;;;;;47.08;12.80;;;;;;;11.29;72.52;100676.75;5018028;28;20408;-82
2023/04/24 04:09:12;;;;;;;65.28;11.95;;;;;;;11.35;73.09;100670.88;5014659;28;20036;-84
2023/04/24 04:11:37;;;;;;;57.55;12.73;;;;;;;11.37;72.74;100674.31;5011858;28;20124;-83
2023/04/24 04:14:03;;;;;;;108.45;15.05;;;;;;;11.47;73.32;100686.00;5011522;28;20118;-82
2023/04/24 04:16:28;;;;;;;96.80;14.60;;;;;;;11.50;73.58;100685.72;5008928;28;20037;-80
2023/04/24 04:18:55;;;;;;;68.10;14.00;;;;;;;11.60;73.61;100680.44;5008962;28;20022;-81
2023/04/24 04:21:20;;;;;;;126.05;18.48;;;;;;;11.71;73.57;100683.94;4974353;28;20052;-80
2023/04/24 04:23:46;;;;;;;122.60;18.88;;;;;;;11.79;73.49;100676.06;5009529;28;21290;-81
2023/04/24 04:26:12;;;;;;;86.60;15.00;;;;;;;11.85;74.02;100678.25;5021615;28;20055;-85
2023/04/24 04:28:38;;;;;;;64.00;13.82;;;;;;;11.99;73.55;100691.38;5017454;28;20025;-83
2023/04/24 04:31:04;;;;;;;63.05;13.82;;;;;;;12.05;73.74;100689.16;5008543;28;20041;-82
2023/04/24 04:33:30;;;;;;;155.48;25.45;;;;;;;12.16;73.66;100683.69;5012616;28;20033;-80
2023/04/24 04:35:57;;;;;;;54.53;12.38;;;;;;;12.32;73.78;100679.50;5018255;28;20029;-81
2023/04/24 04:38:22;;;;;;;76.20;15.32;;;;;;;12.42;74.42;100680.41;5021902;28;20054;-83
2023/04/24 04:40:48;;;;;;;132.50;16.33;;;;;;;12.55;74.42;100674.78;5009898;28;20056;-81
2023/04/24 04:43:14;;;;;;;36.97;10.35;;;;;;;12.69;74.28;100677.09;5009296;28;20058;-78
2023/04/24 04:45:42;;;;;;;73.28;13.90;;;;;;;12.81;74.59;100680.56;5008198;28;20405;-80
2023/04/24 04:48:08;;;;;;;92.88;12.18;;;;;;;12.89;74.28;100689.66;5008964;28;20034;-80
2023/04/24 04:50:34;;;;;;;43.10;9.43;;;;;;;12.94;74.79;100675.72;5009036;28;20042;-83
2023/04/24 04:53:00;;;;;;;39.03;8.63;;;;;;;13.00;74.80;100676.03;5008242;28;20033;-81
2023/04/24 04:55:25;;;;;;;78.97;11.60;;;;;;;13.12;75.22;100675.97;5007801;28;20147;-79
2023/04/24 04:57:51;;;;;;;82.95;12.00;;;;;;;12.93;75.75;100679.44;5008756;28;20032;-81
2023/04/24 05:00:17;;;;;;;44.88;9.18;;;;;;;12.95;75.62;100670.22;5008521;28;20103;-79
2023/04/24 05:02:42;;;;;;;49.55;9.77;;;;;;;12.93;76.08;100672.22;5008609;28;20034;-77
2023/04/24 05:05:08;;;;;;;86.32;14.02;;;;;;;13.02;76.05;100671.38;5008513;28;20030;-78
2023/04/24 05:07:34;;;;;;;50.55;10.07;;;;;;;13.09;75.96;100675.22;5008112;28;20038;-77
2023/04/24 05:10:00;;;;;;;43.53;11.55;;;;;;;12.98;75.61;100678.03;5008579;28;20034;-77
2023/04/24 05:12:25;;;;;;;115.78;23.27;;;;;;;13.03;75.77;100678.47;5008369;28;20022;-77
2023/04/24 05:14:50;;;;;;;36.90;9.65;;;;;;;13.23;75.33;100681.22;5007309;28;20715;-76
2023/04/24 05:17:16;;;;;;;41.67;8.52;;;;;;;13.25;74.97;100680.09;5008278;28;20076;-78
2023/04/24 05:19:42;;;;;;;83.43;11.68;;;;;;;13.19;75.24;100688.75;5009923;28;20088;-77
2023/04/24 05:22:09;;;;;;;59.25;9.70;;;;;;;13.09;75.57;100677.94;5008144;28;20022;-76
2023/04/24 05:24:35;;;;;;;19.27;7.30;;;;;;;13.08;75.79;100684.34;5008557;28;20030;-77
2023/04/24 05:27:02;;;;;;;77.88;11.45;;;;;;;13.26;75.66;100672.84;5008060;28;20037;-77
2023/04/24 05:29:30;;;;;;;44.92;9.57;;;;;;;13.45;75.09;100672.88;5008206;28;20397;-78
2023/04/24 05:31:56;;;;;;;85.85;10.90;;;;;;;13.53;74.58;100673.00;5008668;28;20034;-79
2023/04/24 05:34:21;;;;;;;69.43;10.30;;;;;;;13.51;74.91;100672.31;5010443;28;20034;-78
2023/04/24 05:36:47;;;;;;;54.58;11.48;;;;;;;13.61;74.84;100665.03;5007742;28;20041;-79
2023/04/24 05:39:12;;;;;;;52.35;9.27;;;;;;;13.63;73.84;100672.00;5008103;28;20746;-77
2023/04/24 05:41:38;;;;;;;34.95;8.23;;;;;;;13.83;73.92;100674.69;5007938;28;20412;-78
2023/04/24 05:44:03;;;;;;;28.83;8.18;;;;;;;13.90;73.21;100671.25;5007513;28;20026;-79
2023/04/24 05:46:29;;;;;;;65.25;9.15;;;;;;;14.00;72.30;100676.66;5008069;28;20139;-77
2023/04/24 05:48:54;;;;;;;68.63;9.55;;;;;;;14.05;71.77;100680.63;5007383;28;20446;-78
2023/04/24 05:51:20;;;;;;;83.35;13.00;;;;;;;14.00;71.54;100682.91;5007801;28;20050;-77
2023/04/24 05:53:45;;;;;;;31.23;7.43;;;;;;;14.15;71.54;100680.59;5008081;28;20073;-79
2023/04/24 05:56:11;;;;;;;44.88;9.07;;;;;;;14.13;71.17;100682.59;5008328;28;20030;-78
2023/04/24 05:58:37;;;;;;;30.20;6.70;;;;;;;14.14;70.47;100690.56;5007843;28;20030;-78
2023/04/24 06:01:03;;;;;;;40.35;8.35;;;;;;;14.11;70.40;100674.63;5008431;28;20041;-80
2023/04/24 06:03:28;;;;;;;42.10;7.90;;;;;;;14.19;70.94;100690.13;5010123;28;20120;-79
2023/04/24 06:05:54;;;;;;;38.97;8.18;;;;;;;14.09;70.69;100676.63;5009666;28;20100;-80
2023/04/24 06:08:20;;;;;;;61.85;9.18;;;;;;;14.14;70.57;100685.16;5013143;28;20103;-78
2023/04/24 06:10:45;;;;;;;43.05;7.55;;;;;;;13.94;70.10;100672.66;5013561;28;20033;-78
2023/04/24 06:13:11;;;;;;;71.65;11.10;;;;;;;14.14;70.88;100677.03;5014792;28;20034;-78
2023/04/24 06:15:37;;;;;;;25.85;7.80;;;;;;;14.02;70.78;100690.88;5012005;28;20739;-78
2023/04/24 06:18:03;;;;;;;26.38;7.22;;;;;;;14.06;70.85;100682.34;5011098;28;20065;-79
2023/04/24 06:20:28;;;;;;;27.90;6.68;;;;;;;14.07;70.38;100684.03;5011196;28;20026;-77
2023/04/24 06:22:54;;;;;;;25.33;6.80;;;;;;;14.01;70.81;100684.59;5010875;28;20029;-79
2023/04/24 06:25:20;;;;;;;39.28;6.13;;;;;;;14.08;70.32;100691.16;5010483;28;20107;-79
2023/04/24 06:27:46;;;;;;;22.83;6.90;;;;;;;13.94;70.48;100677.25;5012770;28;20112;-82
2023/04/24 06:30:11;;;;;;;44.03;8.63;;;;;;;13.88;70.82;100677.81;5012831;28;20037;-79
2023/04/24 06:32:37;;;;;;;21.98;6.53;;;;;;;13.99;71.60;100694.72;5011611;28;20152;-77
2023/04/24 06:35:02;;;;;;;64.38;9.30;;;;;;;14.03;71.98;100688.03;5010418;28;20042;-78
2023/04/24 06:37:29;;;;;;;45.22;8.40;;;;;;;14.22;71.88;100686.28;5010629;28;20037;-78
2023/04/24 06:39:54;;;;;;;27.20;7.38;;;;;;;14.08;71.48;100676.78;5010703;28;20026;-78
2023/04/24 06:42:20;;;;;;;40.70;8.15;;;;;;;14.12;71.83;100681.75;4991677;28;20038;-80
2023/04/24 06:44:46;;;;;;;48.88;10.80;;;;;;;14.17;72.19;100689.41;5010678;28;20022;-79
2023/04/24 06:47:13;;;;;;;23.45;5.85;;;;;;;14.24;72.09;100695.09;5010262;28;20030;-79
2023/04/24 06:49:40;;;;;;;22.95;7.00;;;;;;;14.16;72.38;100676.88;5010244;28;20418;-80
2023/04/24 06:52:06;;;;;;;43.03;7.28;;;;;;;14.24;72.19;100687.84;5008479;28;20049;-78
2023/04/24 06:54:32;;;;;;;41.17;7.40;;;;;;;14.30;72.00;100683.69;5010319;28;20405;-79
2023/04/24 06:56:58;;;;;;;37.42;6.00;;;;;;;14.24;71.67;100684.28;5009671;28;20495;-79
2023/04/24 06:59:24;;;;;;;23.80;6.63;;;;;;;14.16;72.14;100693.97;5010360;28;20061;-79
2023/04/24 07:01:51;;;;;;;32.08;6.88;;;;;;;14.25;71.76;100680.59;5010077;28;20057;-80
2023/04/24 07:04:17;;;;;;;24.55;5.90;;;;;;;14.39;71.56;100677.44;5009768;28;20136;-80
2023/04/24 07:06:43;;;;;;;24.75;6.75;;;;;;;14.42;71.33;100693.34;5009746;28;20057;-77
2023/04/24 07:09:09;;;;;;;57.88;8.40;;;;;;;14.46;71.12;100690.19;5009790;28;20029;-77
2023/04/24 07:11:36;;;;;;;38.53;6.57;;;;;;;14.35;71.17;100686.81;5009619;28;20168;-79
2023/04/24 07:14:02;;;;;;;36.58;8.60;;;;;;;14.45;72.00;100687.66;5010077;28;20044;-78
2023/04/24 07:16:28;;;;;;;24.15;6.88;;;;;;;14.61;71.97;100698.72;5011341;28;20070;-77
2023/04/24 07:18:53;;;;;;;9.85;5.80;;;;;;;14.55;71.64;100694.75;5010273;28;20759;-77
2023/04/24 07:21:18;;;;;;;19.58;6.78;;;;;;;14.59;72.37;100700.69;5010030;28;20477;-78
2023/04/24 07:23:44;;;;;;;32.97;6.95;;;;;;;14.40;73.39;100684.56;5011039;28;20426;-79
2023/04/24 07:26:09;;;;;;;34.75;7.13;;;;;;;14.23;72.95;100682.56;5010176;28;20026;-78
2023/04/24 07:28:35;;;;;;;21.02;7.03;;;;;;;14.19;73.69;100699.09;5010509;28;20148;-79
2023/04/24 07:31:00;;;;;;;72.93;9.95;;;;;;;14.29;74.71;100693.66;5009575;28;20026;-78
2023/04/24 07:33:26;;;;;;;31.55;7.00;;;;;;;14.42;75.22;100683.41;5009504;28;20564;-78
2023/04/24 07:35:52;;;;;;;32.60;6.63;;;;;;;14.47;75.09;100691.91;5009295;28;20022;-79
2023/04/24 07:38:21;;;;;;;38.22;7.45;;;;;;;14.63;73.80;100685.88;5009673;28;20559;-79
2023/04/24 07:40:50;;;;;;;44.70;7.38;;;;;;;14.70;73.47;100698.69;5010627;28;20627;-78
2023/04/24 07:43:15;;;;;;;21.88;6.00;;;;;;;14.62;73.36;100692.28;5009181;28;20030;-79
2023/04/24 07:45:41;;;;;;;26.65;6.75;;;;;;;14.59;74.58;100695.28;5009732;28;20064;-77
2023/04/24 07:48:08;;;;;;;35.88;7.47;;;;;;;14.73;74.74;100705.63;5009258;28;20025;-76
2023/04/24 07:50:35;;;;;;;38.38;7.53;;;;;;;14.62;74.70;100712.06;5009444;28;20050;-79
2023/04/24 07:53:01;;;;;;;45.22;9.25;;;;;;;14.59;75.58;100701.53;5009730;28;20021;-78
2023/04/24 07:55:26;;;;;;;39.88;8.25;;;;;;;14.54;75.89;100697.59;5008767;28;20473;-78
2023/04/24 07:57:52;;;;;;;22.13;6.90;;;;;;;14.51;75.66;100700.59;5009023;28;20737;-78
2023/04/24 08:00:17;;;;;;;33.03;7.10;;;;;;;14.63;74.72;100704.81;4990172;28;20045;-79
2023/04/24 08:02:43;;;;;;;41.95;7.55;;;;;;;14.73;75.04;100712.91;5009233;28;20117;-77
2023/04/24 08:05:08;;;;;;;38.67;7.60;;;;;;;14.85;73.35;100712.56;5006953;28;20116;-77
2023/04/24 08:07:35;;;;;;;30.65;7.03;;;;;;;14.92;72.27;100708.22;5008797;28;20579;-77
2023/04/24 08:10:00;;;;;;;28.75;6.03;;;;;;;14.70;70.25;100708.66;4953491;28;20077;-79
2023/04/24 08:12:28;;;;;;;34.83;6.90;;;;;;;14.86;72.12;100703.41;4986329;28;20062;-76
2023/04/24 08:14:53;;;;;;;45.58;6.63;;;;;;;14.95;72.44;100707.94;4986140;28;20085;-78
2023/04/24 08:17:19;;;;;;;75.53;10.63;;;;;;;14.95;72.13;100712.50;4985992;28;20038;-79
2023/04/24 08:19:48;;;;;;;29.23;6.18;;;;;;;14.88;72.33;100714.97;4985890;28;20042;-78
2023/04/24 08:22:14;;;;;;;21.60;6.45;;;;;;;14.96;73.25;100701.50;4990213;28;20038;-78
2023/04/24 08:24:40;;;;;;;30.98;5.95;;;;;;;14.75;73.52;100714.44;4988337;28;20097;-79
2023/04/24 08:27:05;;;;;;;76.82;9.30;;;;;;;14.74;73.62;100704.63;4986776;28;20046;-78
2023/04/24 08:29:31;;;;;;;57.53;7.53;;;;;;;14.89;73.36;100713.13;4985820;28;20035;-77
2023/04/24 08:31:57;;;;;;;39.53;8.75;;;;;;;14.87;73.14;100710.53;4985991;28;20033;-78
2023/04/24 08:34:22;;;;;;;47.20;8.57;;;;;;;14.93;73.65;100715.34;4985595;28;20188;-78
2023/04/24 08:36:48;;;;;;;29.40;7.20;;;;;;;15.03;73.49;100701.75;4985595;28;20832;-78
2023/04/24 08:39:14;;;;;;;27.13;8.73;;;;;;;15.05;74.11;100708.72;4985828;28;20111;-78
2023/04/24 08:41:42;;;;;;;28.52;6.50;;;;;;;15.09;73.17;100710.16;5003087;28;20030;-80
2023/04/24 08:44:09;;;;;;;33.38;6.43;;;;;;;15.16;73.40;100711.25;5008399;28;20033;-80
2023/04/24 08:46:36;;;;;;;36.30;7.65;;;;;;;14.97;72.43;100708.66;5008146;28;20037;-79
2023/04/24 08:49:02;;;;;;;24.58;6.63;;;;;;;14.92;72.96;100697.38;5008413;28;20033;-78
2023/04/24 08:51:28;;;;;;;26.90;7.60;;;;;;;15.03;73.65;100699.91;4989217;28;20513;-79
2023/04/24 08:53:54;;;;;;;42.80;8.45;;;;;;;15.20;74.00;100701.78;5007112;28;20025;-77
2023/04/24 08:56:23;;;;;;;30.98;7.60;;;;;;;15.20;72.73;100688.25;5007939;28;20045;-80
2023/04/24 08:58:50;;;;;;;42.83;8.95;;;;;;;15.31;70.95;100691.75;5008376;28;20675;-77
2023/04/24 09:01:17;;;;;;;24.67;6.68;;;;;;;15.37;70.58;100692.00;5008189;28;20046;-80
2023/04/24 09:03:43;;;;;;;40.83;8.13;;;;;;;15.37;71.40;100674.88;5007910;28;20163;-78
2023/04/24 09:06:10;;;;;;;27.25;6.40;;;;;;;15.60;70.91;100697.81;5007245;28;20104;-78
2023/04/24 09:08:36;;;;;;;41.95;7.50;;;;;;;15.71;70.18;100693.03;5007462;28;20485;-77
2023/04/24 09:11:02;;;;;;;33.35;5.97;;;;;;;15.72;69.81;100697.44;5008618;28;20040;-80
2023/04/24 09:13:28;;;;;;;24.10;5.28;;;;;;;15.74;69.66;100689.16;5009578;28;20026;-80
2023/04/24 09:15:54;;;;;;;52.33;9.40;;;;;;;15.86;70.27;100695.19;5009309;28;20033;-77
2023/04/24 09:18:20;;;;;;;38.83;6.32;;;;;;;15.59;70.18;100697.00;5009227;28;20038;-79
2023/04/24 09:21:19;;;;;;;39.15;7.28;;;;;;;15.50;71.73;100697.06;5010591;28;20426;-80
2023/04/24 09:23:45;;;;;;;28.95;8.18;;;;;;;15.55;71.70;100701.00;4946613;29;20127;-78
2023/04/24 09:26:11;;;;;;;23.52;7.00;;;;;;;15.54;72.19;100702.00;4946158;29;20177;-78
2023/04/24 09:28:40;;;;;;;24.40;7.30;;;;;;;15.77;71.80;100694.25;4946319;29;20083;-77
2023/04/24 09:31:16;;;;;;;21.60;7.05;;;;;;;15.72;70.05;100694.72;4930318;29;20043;-80
2023/04/24 09:33:56;;;;;;;26.90;7.20;;;;;;;15.79;69.89;100700.38;4946139;29;20051;-79
2023/04/24 09:36:38;;;;;;;37.03;6.57;;;;;;;15.49;69.47;100684.50;4946004;29;20038;-77
2023/04/24 09:39:11;;;;;;;33.10;6.65;;;;;;;15.60;70.67;100697.81;4946055;29;20042;-76
2023/04/24 09:41:57;;;;;;;28.98;7.45;;;;;;;15.70;69.56;100698.59;4948246;28;20138;-78
2023/04/24 09:44:25;;;;;;;34.22;6.50;;;;;;;15.59;68.01;100690.72;4950843;29;20094;-79
2023/04/24 09:46:55;;;;;;;23.52;6.65;;;;;;;15.70;69.04;100690.47;4950242;29;20419;-78
2023/04/24 09:49:26;;;;;;;57.35;9.10;;;;;;;15.93;68.30;100688.94;4950316;29;20055;-79
2023/04/24 09:52:11;;;;;;;19.05;5.90;;;;;;;16.01;67.50;100686.31;4947679;29;20086;-78
2023/04/24 09:54:38;;;;;;;31.50;6.90;;;;;;;15.98;67.41;100689.34;4950263;29;20163;-77
2023/04/24 09:57:04;;;;;;;31.98;6.72;;;;;;;15.85;69.01;100680.75;4950199;29;20035;-78
2023/04/24 09:59:30;;;;;;;25.15;7.28;;;;;;;15.76;68.76;100681.69;4985104;28;20041;-78
2023/04/24 10:01:57;;;;;;;45.45;9.38;;;;;;;16.02;69.55;100679.91;5011002;28;20046;-77
2023/04/24 10:04:25;;;;;;;28.55;6.63;;;;;;;15.94;69.11;100658.13;5010882;28;20055;-77
2023/04/24 10:06:52;;;;;;;41.28;8.02;;;;;;;16.11;68.77;100687.09;5010928;28;20095;-79
2023/04/24 10:09:19;;;;;;;21.48;5.72;;;;;;;16.16;68.56;100679.31;5010880;28;20499;-79
2023/04/24 10:11:46;;;;;;;52.10;9.35;;;;;;;16.23;69.18;100676.81;5011126;28;20029;-78
2023/04/24 10:14:14;;;;;;;17.77;5.30;;;;;;;16.38;68.82;100677.06;4976258;28;20504;-77
2023/04/24 10:16:40;;;;;;;18.77;6.32;;;;;;;16.51;68.54;100675.59;5011951;28;20044;-80
2023/04/24 10:19:06;;;;;;;25.02;7.65;;;;;;;16.55;66.93;100668.00;5011977;28;20041;-79
2023/04/24 10:21:33;;;;;;;24.02;6.88;;;;;;;16.59;67.26;100669.41;5011034;28;20022;-78
2023/04/24 10:24:00;;;;;;;25.42;5.32;;;;;;;16.48;67.01;100675.91;5010757;28;20489;-76
2023/04/24 10:26:27;;;;;;;17.13;5.30;;;;;;;16.42;66.83;100667.59;5010911;28;20072;-80
2023/04/24 10:28:54;;;;;;;33.83;8.45;;;;;;;16.09;68.13;100667.38;5011623;28;20022;-78
2023/04/24 10:31:20;;;;;;;21.83;5.90;;;;;;;16.22;68.54;100667.81;5011901;28;20397;-78
2023/04/24 10:33:46;;;;;;;32.65;6.22;;;;;;;16.10;68.35;100662.81;5012027;28;20030;-78
2023/04/24 10:36:14;;;;;;;29.00;6.60;;;;;;;16.07;67.70;100663.97;5012677;28;20088;-80
2023/04/24 10:38:42;;;;;;;28.85;6.30;;;;;;;16.20;68.86;100667.13;5012181;28;20036;-81
2023/04/24 10:41:10;;;;;;;37.85;7.72;;;;;;;16.40;67.39;100656.03;5010301;28;20038;-78
2023/04/24 10:43:36;;;;;;;42.83;7.90;;;;;;;16.19;67.30;100649.13;5010281;28;20485;-78
2023/04/24 10:46:05;;;;;;;37.63;7.80;;;;;;;16.10;67.91;100663.66;5010323;28;20033;-79
2023/04/24 10:48:32;;;;;;;25.75;7.45;;;;;;;16.22;67.66;100656.94;5010445;28;20590;-78
2023/04/24 10:50:57;;;;;;;18.45;6.78;;;;;;;16.31;67.74;100663.28;4991299;28;20050;-79
2023/04/24 10:53:27;;;;;;;33.13;6.40;;;;;;;16.38;67.93;100649.91;5009799;28;20651;-77
2023/04/24 10:56:03;;;;;;;33.65;8.35;;;;;;;16.69;67.21;100664.72;5009678;28;20030;-76
2023/04/24 10:58:40;;;;;;;22.83;6.47;;;;;;;16.56;65.79;100653.44;5010076;28;20496;-76
2023/04/24 11:01:07;;;;;;;29.20;6.78;;;;;;;16.78;66.30;100648.28;5008603;28;20034;-79
2023/04/24 11:03:34;;;;;;;22.02;6.70;;;;;;;16.81;66.56;100653.38;5010398;28;20026;-77
2023/04/24 11:06:07;;;;;;;17.70;6.32;;;;;;;16.98;65.89;100651.56;5009862;28;20847;-79
2023/04/24 11:08:37;;;;;;;31.63;8.00;;;;;;;16.99;65.65;100645.13;5010387;28;20129;-78
2023/04/24 11:11:04;;;;;;;31.85;8.60;;;;;;;17.12;65.52;100640.06;4991525;28;20568;-79
2023/04/24 11:13:55;;;;;;;25.15;6.75;;;;;;;16.99;65.93;100633.38;5012814;28;20116;-79